Hyundai No.107 — A8CT4 — position and weather

sailwx.info

Track history (hours):
 
Tides and Currents Weather Stations Pressure Air Temp Water Temp Dewpoint Dewpoint Depression Visibility Wind Speed Wind Dir Waves Ship Positions

Hyundai No.107

Last reported at 2017-Feb-27 17:33 UTC. Time now 2017-Feb-27 18:09 UTC.
Position N 48°18' W 124°09'.

Length 184 m; draft 8.2 m.

Type: Cargo ship. MMSI: 636011980.

Date/timePositionNaut miles runAvg speedWind from/ knotsBaromVisibWave heightAir tempDewpointWater temp
2017-Feb-27 17:33N 48°18' W 124°09'1313.2
2017-Feb-27 16:33N 48°23' W 124°27'1313.4
2017-Feb-27 15:34N 48°29' W 124°45'1312.5
2017-Feb-27 14:29N 48°23' W 125°04'1615.0
2017-Feb-27 13:27N 48°10' W 125°15'15 1.8
2017-Feb-27 05:22N 47°59' W 125°32'1 0.6
2017-Feb-27 03:07N 48°01' W 125°33'1 1.0
2017-Feb-27 02:30N 48°01' W 125°33'11 1.0
2017-Feb-26 15:28N 48°12' W 125°35'36 0.9
2017-Feb-25 00:10N 48°25' W 126°25'2 1.2
2017-Feb-24 22:31N 48°26' W 126°23'3 1.1
2017-Feb-24 20:12N 48°28' W 126°21'1 0.7
2017-Feb-24 19:13N 48°29' W 126°20'1 0.9
2017-Feb-24 18:31N 48°29' W 126°19'0 0.3
2017-Feb-24 17:30N 48°29' W 126°19'7 6.2
2017-Feb-24 16:24N 48°30' W 126°08'5 5.5
2017-Feb-24 15:33N 48°29' W 126°15'  
Track history (hours):
 
Tides and Currents Weather Stations Pressure Air Temp Water Temp Dewpoint Dewpoint Depression Visibility Wind Speed Wind Dir Waves Ship Positions

Hyundai No.107

Last reported at 2017-Feb-27 17:33 UTC. Time now 2017-Feb-27 18:09 UTC.
Position N 48°18' W 124°09'.

Length 184 m; draft 8.2 m.

Type: Cargo ship. MMSI: 636011980.

Date/timePositionNaut miles runAvg speedWind from/ knotsBaromVisibWave heightAir tempDewpointWater temp
2017-Feb-27 17:33N 48°18' W 124°09'1313.2
2017-Feb-27 16:33N 48°23' W 124°27'1313.4
2017-Feb-27 15:34N 48°29' W 124°45'1312.5
2017-Feb-27 14:29N 48°23' W 125°04'1615.0
2017-Feb-27 13:27N 48°10' W 125°15'15 1.8
2017-Feb-27 05:22N 47°59' W 125°32'1 0.6
2017-Feb-27 03:07N 48°01' W 125°33'1 1.0
2017-Feb-27 02:30N 48°01' W 125°33'11 1.0
2017-Feb-26 15:28N 48°12' W 125°35'36 0.9
2017-Feb-25 00:10N 48°25' W 126°25'2 1.2
2017-Feb-24 22:31N 48°26' W 126°23'3 1.1
2017-Feb-24 20:12N 48°28' W 126°21'1 0.7
2017-Feb-24 19:13N 48°29' W 126°20'1 0.9
2017-Feb-24 18:31N 48°29' W 126°19'0 0.3
2017-Feb-24 17:30N 48°29' W 126°19'7 6.2
2017-Feb-24 16:24N 48°30' W 126°08'5 5.5
2017-Feb-24 15:33N 48°29' W 126°15'  

Dump ship's entire track history